Indian Creek, Iowa
Current Conditions -  °F | °C
As of 10:55 AM on Thursday 23 Oct 2014 (Local Time) from KCID Reporting Station
Overcast Overcast  
Wind Chill: 45°   Ceiling: 2100
Heat Index: 49°   Visibility: 10mi
Dew Point: 45°   Wind: 10mph
Humidity: 86%   Direction: 170°S
Pressure: 30.07"   Gusts: NA
Location:  42.0672°N, 91.5782°W
Report Text: KCID 231555Z 17009KT 10SM SCT016 BKN021 OVC100 09/07 A3007 RMK AO2 T00940072
Loading
Personal Weather Stations






























Interactive Weather Map
Tropical Storm Tracking
New forecast layout! Learn more

10-Day Weather Forecast

Advertisements
Track Severe Weather on mobile